Time;durP1;ratioP1;P1;durP2;ratioP2;P2;SDS_P1;SDS_P2;PMS_P1;PMS_P2;Temp;Humidity;BMP_temperature;BMP_pressure;BME280_temperature;BME280_humidity;BME280_pressure;Samples;Min_cycle;Max_cycle;Signal;HPM_P1;HPM_P2
2021/10/16 00:00:35;;;;;;;8.23;3.90;;;;;;;4.73;94.62;101073.16;5009283;28;20037;-79
2021/10/16 00:03:01;;;;;;;30.77;5.05;;;;;;;4.60;93.23;101078.91;5010394;28;20045;-78
2021/10/16 00:05:26;;;;;;;293.60;23.15;;;;;;;4.39;92.81;101074.00;5011514;28;20046;-79
2021/10/16 00:07:51;;;;;;;9.85;4.05;;;;;;;4.34;93.84;101076.47;5007918;28;20038;-79
2021/10/16 00:10:17;;;;;;;10.98;4.85;;;;;;;4.36;94.18;101077.41;5009675;28;20045;-79
2021/10/16 00:12:43;;;;;;;30.85;6.22;;;;;;;4.29;94.07;101080.69;5011471;28;20049;-78
2021/10/16 00:15:08;;;;;;;11.05;4.35;;;;;;;4.30;93.98;101086.81;5010279;28;20038;-79
2021/10/16 00:17:33;;;;;;;16.70;5.25;;;;;;;4.27;93.66;101085.00;5010591;28;20030;-78
2021/10/16 00:19:59;;;;;;;12.45;4.55;;;;;;;4.30;93.85;101078.97;5012498;28;20046;-78
2021/10/16 00:22:25;;;;;;;13.70;5.22;;;;;;;4.25;93.90;101078.84;5011241;28;20073;-78
2021/10/16 00:24:50;;;;;;;11.10;4.80;;;;;;;4.24;93.69;101084.88;5006400;28;20041;-79
2021/10/16 00:27:16;;;;;;;14.43;5.88;;;;;;;4.21;94.02;101087.41;5009786;28;20105;-78
2021/10/16 00:29:42;;;;;;;12.25;5.57;;;;;;;4.17;94.15;101086.47;5006352;28;20568;-79
2021/10/16 00:32:08;;;;;;;9.82;4.20;;;;;;;4.21;94.26;101090.03;5007547;28;20072;-78
2021/10/16 00:34:33;;;;;;;11.05;4.05;;;;;;;4.22;94.48;101097.06;5026388;28;20069;-78
2021/10/16 00:36:59;;;;;;;9.82;5.82;;;;;;;4.20;93.79;101090.88;5022670;28;20034;-79
2021/10/16 00:39:24;;;;;;;8.75;3.90;;;;;;;4.21;94.23;101090.03;5006416;28;20156;-79
2021/10/16 00:41:51;;;;;;;6.75;3.88;;;;;;;4.24;94.81;101097.06;4992882;28;20034;-79
2021/10/16 00:44:22;;;;;;;10.55;4.60;;;;;;;4.29;94.99;101088.53;5022064;28;20030;-79
2021/10/16 00:46:48;;;;;;;6.15;3.33;;;;;;;4.25;94.42;101097.13;5022545;28;20044;-78
2021/10/16 00:49:14;;;;;;;9.02;4.82;;;;;;;4.24;94.20;101090.13;5026564;28;20036;-78
2021/10/16 00:51:40;;;;;;;10.90;4.00;;;;;;;4.29;94.22;101095.47;5008316;28;20445;-78
2021/10/16 00:54:08;;;;;;;8.23;3.72;;;;;;;4.27;94.01;101100.69;5007071;28;20054;-79
2021/10/16 00:56:40;;;;;;;8.30;4.07;;;;;;;4.24;94.19;101100.56;5006395;28;20034;-79
2021/10/16 00:59:06;;;;;;;12.68;5.13;;;;;;;4.25;94.47;101097.13;5022508;28;20069;-78
2021/10/16 01:01:32;;;;;;;13.63;5.95;;;;;;;4.30;95.26;101092.03;5023379;28;20037;-79
2021/10/16 01:03:59;;;;;;;12.35;5.75;;;;;;;4.33;94.74;101098.22;5005662;28;20031;-79
2021/10/16 01:06:26;;;;;;;16.05;6.30;;;;;;;4.39;95.17;101100.13;5006750;28;20117;-81
2021/10/16 01:08:53;;;;;;;13.95;6.13;;;;;;;4.43;95.23;101096.75;5004975;28;20069;-81
2021/10/16 01:11:32;;;;;;;14.88;6.15;;;;;;;4.42;94.90;101097.59;5024571;28;20124;-81
2021/10/16 01:13:59;;;;;;;14.65;5.45;;;;;;;4.47;95.65;101100.34;5024855;28;20114;-81
2021/10/16 01:16:24;;;;;;;13.40;5.63;;;;;;;4.46;95.14;101091.63;5022919;28;20026;-81
2021/10/16 01:18:50;;;;;;;19.20;8.15;;;;;;;4.43;94.85;101099.38;5010078;28;20089;-81
2021/10/16 01:21:15;;;;;;;10.68;5.43;;;;;;;4.45;95.11;101100.28;4991120;28;20034;-81
2021/10/16 01:23:41;;;;;;;12.88;6.25;;;;;;;4.47;95.06;101092.50;5006822;28;20034;-80
2021/10/16 01:26:07;;;;;;;14.73;6.78;;;;;;;4.46;94.66;101091.63;5024476;28;20389;-81
2021/10/16 01:28:33;;;;;;;21.15;6.30;;;;;;;4.43;94.50;101093.25;5021538;28;20097;-81
2021/10/16 01:30:59;;;;;;;13.55;6.55;;;;;;;4.41;94.53;101087.13;5007737;28;20080;-81
2021/10/16 01:33:28;;;;;;;12.23;6.13;;;;;;;4.39;94.74;101089.66;5005486;28;20034;-81
2021/10/16 01:36:04;;;;;;;13.00;5.80;;;;;;;4.35;94.28;101093.94;5004778;28;20080;-81
2021/10/16 01:38:31;;;;;;;19.10;7.57;;;;;;;4.32;94.20;101093.84;5027537;28;20049;-81
2021/10/16 01:40:58;;;;;;;13.48;6.55;;;;;;;4.31;94.34;101099.91;5009413;28;20192;-78
2021/10/16 01:43:25;;;;;;;12.18;6.35;;;;;;;4.34;94.73;101100.00;5011138;28;20048;-81
2021/10/16 01:45:54;;;;;;;13.27;6.45;;;;;;;4.33;94.65;101098.22;5008566;28;20045;-81
2021/10/16 01:48:23;;;;;;;11.70;5.97;;;;;;;4.38;95.09;101103.59;5026019;28;20097;-81
2021/10/16 01:50:50;;;;;;;15.68;6.55;;;;;;;4.37;95.32;101101.81;5024460;28;20041;-81
2021/10/16 01:53:30;;;;;;;18.33;6.60;;;;;;;4.45;95.96;101100.28;5023599;28;20038;-81
2021/10/16 01:56:01;;;;;;;19.33;6.93;;;;;;;4.58;96.05;101102.41;4991935;28;20033;-81
2021/10/16 01:58:32;;;;;;;13.85;6.88;;;;;;;4.68;95.91;101093.06;5002725;28;20034;-81
2021/10/16 02:01:21;;;;;;;12.18;5.82;;;;;;;4.72;96.02;101094.94;4992006;28;20034;-81
2021/10/16 02:03:49;;;;;;;16.90;6.30;;;;;;;4.74;95.69;101103.72;5019510;28;20496;-81
2021/10/16 02:06:23;;;;;;;15.93;5.45;;;;;;;4.74;95.76;101110.66;5026869;28;20026;-81
2021/10/16 02:08:55;;;;;;;14.52;6.45;;;;;;;4.78;95.30;101107.28;5008930;28;20030;-80
2021/10/16 02:11:20;;;;;;;14.82;4.97;;;;;;;4.76;95.58;101104.63;5013362;28;20042;-81
2021/10/16 02:13:50;;;;;;;11.45;4.85;;;;;;;4.77;95.99;101108.16;5009867;28;20034;-81
2021/10/16 02:16:16;;;;;;;9.38;4.47;;;;;;;4.75;95.57;101105.47;5028525;28;20029;-82
2021/10/16 02:18:59;;;;;;;14.98;5.72;;;;;;;4.75;95.81;101097.63;5008588;28;20089;-80
2021/10/16 02:21:25;;;;;;;16.52;5.38;;;;;;;4.78;96.03;101095.09;5010305;28;20029;-78
2021/10/16 02:23:54;;;;;;;14.52;5.70;;;;;;;4.79;95.78;101094.25;5025435;28;20027;-78
2021/10/16 02:26:21;;;;;;;11.73;5.68;;;;;;;4.78;95.26;101095.09;5023537;28;20034;-79
2021/10/16 02:28:49;;;;;;;14.55;5.05;;;;;;;4.76;95.15;101099.38;5008660;28;20029;-78
2021/10/16 02:31:22;;;;;;;10.13;4.53;;;;;;;4.76;95.77;101107.22;5016318;28;20029;-78
2021/10/16 02:33:49;;;;;;;20.48;8.38;;;;;;;4.77;96.25;101108.16;5025820;28;20125;-79
2021/10/16 02:36:16;;;;;;;22.40;9.38;;;;;;;4.76;96.26;101112.47;5001510;28;20033;-78
2021/10/16 02:38:41;;;;;;;18.48;8.07;;;;;;;4.77;96.12;101108.16;5026731;28;20026;-78
2021/10/16 02:41:07;;;;;;;16.38;7.13;;;;;;;4.78;95.99;101113.41;5032541;28;20029;-78
2021/10/16 02:43:32;;;;;;;16.08;8.32;;;;;;;4.74;95.36;101111.56;5009651;28;20033;-78
2021/10/16 02:45:58;;;;;;;14.68;4.93;;;;;;;4.69;95.42;101105.31;5008197;28;20038;-78
2021/10/16 02:48:24;;;;;;;12.70;5.07;;;;;;;4.67;95.63;101112.22;5025265;28;20030;-80
2021/10/16 02:50:50;;;;;;;13.10;4.90;;;;;;;4.65;95.60;101116.53;5005720;28;20040;-76
2021/10/16 02:53:18;;;;;;;12.82;4.95;;;;;;;4.59;95.67;101121.59;5026360;28;20496;-77
2021/10/16 02:55:43;;;;;;;14.80;5.32;;;;;;;4.60;95.88;101120.75;5014208;28;20026;-78
2021/10/16 02:58:09;;;;;;;15.13;5.13;;;;;;;4.61;95.91;101122.50;5022402;28;20121;-78
2021/10/16 03:00:36;;;;;;;11.05;4.60;;;;;;;4.61;96.33;101118.19;5008878;28;20034;-78
2021/10/16 03:03:03;;;;;;;19.75;5.82;;;;;;;4.63;96.12;101125.16;5024496;28;20038;-78
2021/10/16 03:05:28;;;;;;;18.20;6.30;;;;;;;4.65;96.27;101124.38;5010436;28;20034;-77
2021/10/16 03:07:54;;;;;;;12.23;5.05;;;;;;;4.67;95.73;101133.16;5009901;28;20033;-78
2021/10/16 03:10:19;;;;;;;11.05;5.50;;;;;;;4.69;96.38;101126.25;5026444;28;20038;-77
2021/10/16 03:12:45;;;;;;;14.85;5.03;;;;;;;4.71;95.70;101124.53;5010297;28;20160;-78
2021/10/16 03:15:13;;;;;;;16.00;5.22;;;;;;;4.73;95.99;101130.69;5033175;28;20034;-78
2021/10/16 03:17:39;;;;;;;19.65;5.70;;;;;;;4.72;95.79;101131.56;5024472;28;20048;-77
2021/10/16 03:20:06;;;;;;;17.85;6.10;;;;;;;4.72;96.05;101142.00;5009473;28;20547;-77
2021/10/16 03:22:32;;;;;;;16.48;6.43;;;;;;;4.72;96.15;101142.00;5027103;28;20025;-78
2021/10/16 03:24:57;;;;;;;12.57;5.93;;;;;;;4.73;96.36;101135.91;5025355;28;20018;-78
2021/10/16 03:27:22;;;;;;;14.38;6.68;;;;;;;4.74;96.03;101142.94;5026162;28;20083;-78
2021/10/16 03:29:48;;;;;;;17.05;6.78;;;;;;;4.72;96.15;101147.25;5006616;28;20062;-78
2021/10/16 03:32:13;;;;;;;12.98;5.85;;;;;;;4.71;96.43;101137.59;5008499;28;20037;-78
2021/10/16 03:34:40;;;;;;;17.13;7.85;;;;;;;4.71;96.10;101145.44;4989345;28;20552;-78
2021/10/16 03:37:05;;;;;;;23.58;9.82;;;;;;;4.70;96.25;101145.41;5024023;28;20029;-78
2021/10/16 03:39:32;;;;;;;19.80;10.45;;;;;;;4.70;95.69;101148.03;5005206;28;20037;-78
2021/10/16 03:41:57;;;;;;;25.70;11.02;;;;;;;4.67;95.60;101148.84;5004097;28;20174;-78
2021/10/16 03:44:23;;;;;;;22.38;10.05;;;;;;;4.65;95.44;101152.25;5024940;28;20041;-77
2021/10/16 03:46:48;;;;;;;14.48;7.05;;;;;;;4.62;95.82;101150.44;5003539;28;20037;-77
2021/10/16 03:49:15;;;;;;;17.23;8.55;;;;;;;4.57;95.50;101149.41;4975316;28;20512;-77
2021/10/16 03:51:41;;;;;;;15.57;8.55;;;;;;;4.58;95.99;101156.41;5021494;28;20045;-77
2021/10/16 03:54:06;;;;;;;20.13;7.90;;;;;;;4.56;96.11;101152.91;5002677;28;20038;-78
2021/10/16 03:56:32;;;;;;;15.55;7.97;;;;;;;4.57;96.01;101162.50;5021904;28;20034;-78
2021/10/16 03:58:58;;;;;;;12.20;6.47;;;;;;;4.57;96.14;101162.50;5001807;28;20030;-77
2021/10/16 04:01:23;;;;;;;11.15;6.30;;;;;;;4.53;95.24;101155.41;5005750;28;20038;-77
2021/10/16 04:03:48;;;;;;;11.77;6.63;;;;;;;4.49;95.27;101154.44;5018861;28;20042;-77
2021/10/16 04:06:15;;;;;;;15.93;7.65;;;;;;;4.48;95.29;101155.28;5001701;28;20483;-78
2021/10/16 04:08:41;;;;;;;17.83;8.38;;;;;;;4.46;94.93;101161.31;5021281;28;20474;-78
2021/10/16 04:11:06;;;;;;;13.07;7.82;;;;;;;4.41;94.27;101160.28;5003708;28;20038;-78
2021/10/16 04:13:31;;;;;;;11.63;6.53;;;;;;;4.38;94.53;101161.09;5006928;28;20552;-77
2021/10/16 04:15:57;;;;;;;13.80;6.80;;;;;;;4.37;94.36;101165.41;5009261;28;20029;-77
2021/10/16 04:18:22;;;;;;;14.15;7.20;;;;;;;4.32;93.85;101163.50;5020001;28;20089;-78
2021/10/16 04:20:50;;;;;;;11.52;6.38;;;;;;;4.31;94.13;101164.34;5021933;28;20467;-77
2021/10/16 04:23:16;;;;;;;10.82;6.07;;;;;;;4.25;94.16;101172.91;5005537;28;20132;-77
2021/10/16 04:25:42;;;;;;;10.02;5.20;;;;;;;4.21;93.71;101171.03;5020621;28;20053;-80
2021/10/16 04:28:09;;;;;;;14.52;6.57;;;;;;;4.21;93.84;101165.81;5023864;28;20392;-81
2021/10/16 04:30:43;;;;;;;11.65;6.03;;;;;;;4.17;93.90;101171.78;5026482;28;20496;-80
2021/10/16 04:33:09;;;;;;;13.48;6.80;;;;;;;4.11;93.88;101168.97;5024931;28;20038;-81
2021/10/16 04:35:35;;;;;;;12.85;6.00;;;;;;;4.13;93.98;101177.75;5006571;28;20030;-79
2021/10/16 04:38:00;;;;;;;11.40;6.97;;;;;;;4.13;94.10;101185.59;5020190;28;20049;-80
2021/10/16 04:40:26;;;;;;;13.70;6.75;;;;;;;4.14;94.41;101182.16;5008065;28;20084;-81
2021/10/16 04:42:53;;;;;;;12.75;6.03;;;;;;;4.13;94.63;101185.59;5018742;28;20184;-80
2021/10/16 04:45:20;;;;;;;17.60;8.00;;;;;;;4.07;94.17;101183.69;5022635;28;20034;-79
2021/10/16 04:47:46;;;;;;;15.55;6.75;;;;;;;4.06;94.29;101186.22;5019320;28;20115;-80
2021/10/16 04:50:12;;;;;;;13.20;6.32;;;;;;;4.09;94.19;101189.84;5006795;28;20500;-79
2021/10/16 04:52:42;;;;;;;13.73;5.65;;;;;;;4.16;93.94;101193.50;5018688;28;20037;-80
2021/10/16 04:55:12;;;;;;;13.60;7.03;;;;;;;4.23;94.48;101199.81;5025042;28;20068;-80
2021/10/16 04:57:37;;;;;;;13.88;7.00;;;;;;;4.38;95.39;101198.56;5024588;28;20025;-80
2021/10/16 05:00:06;;;;;;;16.20;8.55;;;;;;;4.56;95.80;101195.59;5023296;28;20057;-81
2021/10/16 05:02:35;;;;;;;13.40;7.05;;;;;;;4.72;95.64;101191.69;5021967;28;20026;-80
2021/10/16 05:05:00;;;;;;;16.08;7.97;;;;;;;4.81;95.13;101191.94;5021873;28;20124;-81
2021/10/16 05:07:26;;;;;;;20.05;8.88;;;;;;;4.90;95.76;101193.94;5004129;28;20034;-81
2021/10/16 05:09:52;;;;;;;15.30;8.70;;;;;;;4.97;95.34;101190.63;5022676;28;20514;-78
2021/10/16 05:12:17;;;;;;;17.58;8.77;;;;;;;5.05;95.04;101198.69;5004893;28;20069;-77
2021/10/16 05:14:44;;;;;;;15.13;8.45;;;;;;;5.12;94.91;101191.91;5021201;28;20081;-78
2021/10/16 05:17:10;;;;;;;19.23;9.32;;;;;;;5.18;94.62;101198.16;5004060;28;20092;-78
2021/10/16 05:19:36;;;;;;;14.93;7.85;;;;;;;5.27;94.54;101195.78;5020745;28;20063;-78
2021/10/16 05:22:02;;;;;;;21.65;10.15;;;;;;;5.39;94.84;101194.34;5021064;28;20046;-78
2021/10/16 05:24:29;;;;;;;19.48;9.90;;;;;;;5.44;94.31;101204.06;5003848;28;20049;-78
2021/10/16 05:26:57;;;;;;;18.42;9.00;;;;;;;5.49;94.13;101207.69;5004414;28;20033;-78
2021/10/16 05:29:22;;;;;;;21.40;9.48;;;;;;;5.57;93.62;101196.53;5021288;28;20034;-78
2021/10/16 05:31:49;;;;;;;20.73;10.18;;;;;;;5.66;93.83;101205.50;5020243;28;20035;-79
2021/10/16 05:34:16;;;;;;;19.88;9.50;;;;;;;5.72;93.54;101199.53;5021466;28;20033;-78
2021/10/16 05:36:42;;;;;;;15.20;8.05;;;;;;;5.72;93.22;101199.53;5019365;28;20412;-77
2021/10/16 05:39:07;;;;;;;15.40;8.05;;;;;;;5.76;93.19;101197.84;5007161;28;20030;-78
2021/10/16 05:41:35;;;;;;;15.02;8.60;;;;;;;5.75;92.70;101201.34;5023011;28;20038;-77
2021/10/16 05:44:00;;;;;;;18.33;9.30;;;;;;;5.76;92.67;101201.34;5026123;28;20568;-78
2021/10/16 05:46:26;;;;;;;15.32;8.15;;;;;;;5.70;92.36;101201.22;5006629;28;20042;-78
2021/10/16 05:48:52;;;;;;;17.65;8.02;;;;;;;5.67;92.55;101204.66;5025223;28;20041;-79
2021/10/16 05:51:18;;;;;;;18.15;8.52;;;;;;;5.62;92.83;101206.28;5023523;28;20128;-77
2021/10/16 05:53:44;;;;;;;16.15;8.85;;;;;;;5.61;92.69;101204.50;5016332;28;20125;-78
2021/10/16 05:56:10;;;;;;;16.15;7.93;;;;;;;5.67;92.97;101203.78;5009916;28;20472;-80
2021/10/16 05:58:36;;;;;;;18.58;8.95;;;;;;;5.77;92.93;101215.38;5011116;28;20026;-80
2021/10/16 06:01:03;;;;;;;13.23;8.23;;;;;;;5.84;93.13;101209.41;5007736;28;20160;-79
2021/10/16 06:03:34;;;;;;;16.77;7.80;;;;;;;5.92;92.48;101218.31;5007016;28;20075;-78
2021/10/16 06:06:00;;;;;;;16.05;7.65;;;;;;;5.96;92.45;101222.84;5006908;28;20034;-81
2021/10/16 06:08:26;;;;;;;21.92;11.20;;;;;;;5.97;91.70;101221.09;5022220;28;20088;-81
2021/10/16 06:10:52;;;;;;;17.08;10.25;;;;;;;6.02;92.72;101219.47;5006129;28;20125;-80
2021/10/16 06:13:18;;;;;;;17.63;9.93;;;;;;;6.09;91.88;101216.16;4995447;28;20060;-79
2021/10/16 06:15:44;;;;;;;13.82;8.45;;;;;;;6.17;92.22;101224.19;4994203;28;20022;-79
2021/10/16 06:18:11;;;;;;;24.75;10.63;;;;;;;6.28;92.11;101220.06;5025271;28;20037;-79
2021/10/16 06:20:37;;;;;;;18.02;8.75;;;;;;;6.27;91.21;101227.06;5016941;28;20090;-79
2021/10/16 06:23:03;;;;;;;13.85;7.55;;;;;;;6.31;91.99;101228.91;5003273;28;20412;-78
2021/10/16 06:25:28;;;;;;;16.90;8.55;;;;;;;6.31;91.58;101230.63;5008690;28;20026;-81
2021/10/16 06:27:54;;;;;;;17.50;8.30;;;;;;;6.37;91.55;101230.78;5019561;28;20063;-79
2021/10/16 06:30:19;;;;;;;19.77;10.27;;;;;;;6.42;91.18;101239.63;5022755;28;20038;-79
2021/10/16 06:32:46;;;;;;;17.13;9.32;;;;;;;6.54;91.53;101237.25;5014601;28;20763;-81
2021/10/16 06:35:11;;;;;;;21.90;10.18;;;;;;;6.66;91.17;101243.63;5007941;28;20073;-79
2021/10/16 06:37:37;;;;;;;18.40;10.25;;;;;;;6.73;90.95;101242.88;5022197;28;20030;-79
2021/10/16 06:40:05;;;;;;;18.63;11.68;;;;;;;6.84;90.89;101246.63;5025029;28;20077;-79
2021/10/16 06:42:36;;;;;;;21.35;10.93;;;;;;;6.93;90.95;101246.81;5016546;28;20033;-80
2021/10/16 06:45:21;;;;;;;17.00;8.48;;;;;;;6.99;90.10;101249.56;5009056;28;20049;-81
2021/10/16 06:47:57;;;;;;;15.02;7.70;;;;;;;7.08;89.76;101255.88;5026684;28;20030;-81
2021/10/16 06:50:42;;;;;;;19.27;9.00;;;;;;;7.12;89.67;101258.56;5001331;28;20066;-80
2021/10/16 06:53:07;;;;;;;15.63;7.88;;;;;;;7.15;89.19;101253.38;5007896;28;20085;-81
2021/10/16 06:55:33;;;;;;;16.48;9.63;;;;;;;7.25;89.23;101249.19;5024621;28;20041;-80
2021/10/16 06:57:59;;;;;;;17.23;9.75;;;;;;;7.29;89.15;101250.13;5020492;28;20045;-80
2021/10/16 07:00:26;;;;;;;16.95;8.73;;;;;;;7.38;89.48;101264.31;5024369;28;20124;-80
2021/10/16 07:02:54;;;;;;;14.90;8.15;;;;;;;7.58;89.74;101261.16;5008105;28;20037;-81
2021/10/16 07:05:20;;;;;;;12.95;7.47;;;;;;;7.75;88.97;101257.06;5027565;28;20026;-79
2021/10/16 07:07:46;;;;;;;15.93;7.88;;;;;;;7.86;87.75;101271.31;5026326;28;20120;-81
2021/10/16 07:10:12;;;;;;;14.38;8.48;;;;;;;7.92;88.00;101269.63;5021705;28;20061;-80
2021/10/16 07:12:37;;;;;;;14.95;8.35;;;;;;;7.99;87.74;101276.75;5024257;28;20484;-80
2021/10/16 07:15:04;;;;;;;13.07;7.15;;;;;;;8.13;87.70;101275.22;5007291;28;20042;-80
2021/10/16 07:17:30;;;;;;;21.08;8.82;;;;;;;8.17;87.15;101277.03;5026236;28;20025;-81
2021/10/16 07:19:55;;;;;;;15.77;7.90;;;;;;;8.17;87.05;101291.94;5008086;28;20102;-79
2021/10/16 07:22:21;;;;;;;13.90;8.50;;;;;;;8.26;86.78;101292.97;5021143;28;20106;-80
2021/10/16 07:24:48;;;;;;;12.23;7.65;;;;;;;8.24;86.65;101286.78;5006097;28;20109;-79
2021/10/16 07:27:14;;;;;;;17.48;9.05;;;;;;;8.33;86.48;101296.56;5005301;28;20038;-79
2021/10/16 07:29:40;;;;;;;15.07;8.13;;;;;;;8.41;86.73;101286.19;5007439;28;20037;-80
2021/10/16 07:32:08;;;;;;;12.13;7.40;;;;;;;8.43;86.35;101287.09;5009127;28;20034;-80
2021/10/16 07:34:34;;;;;;;15.00;7.93;;;;;;;8.51;86.41;101282.81;5011645;28;20046;-80
2021/10/16 07:36:59;;;;;;;15.00;7.72;;;;;;;8.58;86.35;101286.44;5008308;28;20433;-81
2021/10/16 07:39:24;;;;;;;12.45;7.40;;;;;;;8.64;85.53;101274.25;5019723;28;20092;-81
2021/10/16 07:41:50;;;;;;;18.10;9.10;;;;;;;8.71;85.00;101284.00;5022559;28;20033;-81
2021/10/16 07:44:16;;;;;;;11.88;6.90;;;;;;;8.74;84.63;101286.66;5004765;28;20026;-80
2021/10/16 07:46:42;;;;;;;15.13;6.88;;;;;;;8.67;84.37;101295.38;5006950;28;20048;-80
2021/10/16 07:49:09;;;;;;;17.50;8.20;;;;;;;8.67;84.87;101298.00;5005403;28;20069;-79
2021/10/16 07:51:34;;;;;;;11.43;7.10;;;;;;;8.65;83.69;101299.72;5006159;28;20046;-80
2021/10/16 07:54:00;;;;;;;13.98;7.43;;;;;;;8.70;84.88;101303.28;5005635;28;20034;-81
2021/10/16 07:56:25;;;;;;;16.25;8.35;;;;;;;8.84;85.03;101297.34;5020772;28;20042;-79
2021/10/16 07:58:51;;;;;;;14.05;8.13;;;;;;;8.99;84.62;101298.41;5006200;28;20029;-81
2021/10/16 08:01:16;;;;;;;12.98;7.45;;;;;;;9.18;84.37;101296.00;5004429;28;20038;-79
2021/10/16 08:03:41;;;;;;;14.13;8.30;;;;;;;9.25;83.78;101295.22;5005953;28;20112;-79
2021/10/16 08:06:07;;;;;;;15.50;7.85;;;;;;;9.29;82.75;101302.25;5018799;28;20417;-81
2021/10/16 08:08:32;;;;;;;11.38;6.70;;;;;;;9.46;82.80;101293.66;5022596;28;20033;-79
2021/10/16 08:10:58;;;;;;;13.80;7.65;;;;;;;9.43;83.22;101294.50;5003115;28;20092;-80
2021/10/16 08:13:26;;;;;;;12.43;7.18;;;;;;;9.51;82.53;101297.22;5006183;28;20037;-81
2021/10/16 08:15:51;;;;;;;13.10;6.15;;;;;;;9.64;82.44;101294.75;4986703;28;20034;-81
2021/10/16 08:18:16;;;;;;;15.10;7.68;;;;;;;9.63;82.69;101297.34;5005678;28;20041;-80
2021/10/16 08:20:42;;;;;;;15.32;7.57;;;;;;;9.62;82.29;101296.47;5003697;28;20030;-80
2021/10/16 08:23:07;;;;;;;12.73;6.35;;;;;;;9.68;81.52;101300.94;5004873;28;20035;-80
2021/10/16 08:25:33;;;;;;;15.52;6.97;;;;;;;9.58;81.47;101305.22;5005246;28;20104;-80
2021/10/16 08:28:05;;;;;;;12.20;6.55;;;;;;;9.61;80.86;101294.69;5006385;28;20064;-80
2021/10/16 08:30:30;;;;;;;14.50;6.07;;;;;;;9.77;80.98;101303.66;5007243;28;20030;-80
2021/10/16 08:32:56;;;;;;;13.30;6.28;;;;;;;9.82;80.27;101303.69;5003785;28;20511;-81
2021/10/16 08:35:21;;;;;;;13.93;6.65;;;;;;;9.79;80.58;101303.66;5019199;28;20077;-81
2021/10/16 08:37:47;;;;;;;19.55;8.85;;;;;;;9.91;80.67;101306.41;5005989;28;20041;-81
2021/10/16 08:40:12;;;;;;;15.15;7.85;;;;;;;10.18;81.04;101302.25;5023405;28;20041;-80
2021/10/16 08:42:38;;;;;;;13.63;7.40;;;;;;;10.34;80.15;101292.72;5002682;28;20046;-80
2021/10/16 08:45:04;;;;;;;13.32;6.18;;;;;;;10.45;79.81;101299.84;5008996;28;20030;-82
2021/10/16 08:47:35;;;;;;;16.40;6.95;;;;;;;10.44;78.66;101303.34;5009427;28;20045;-81
2021/10/16 08:50:03;;;;;;;15.65;7.22;;;;;;;10.47;79.13;101305.13;5002852;28;20038;-78
2021/10/16 08:52:28;;;;;;;16.83;7.63;;;;;;;10.60;78.95;101299.03;5002235;28;20042;-81
2021/10/16 08:54:57;;;;;;;10.43;5.53;;;;;;;10.81;77.15;101300.91;5005180;28;20033;-81
2021/10/16 08:57:22;;;;;;;14.27;6.57;;;;;;;10.79;78.20;101301.78;5009428;28;20117;-81
2021/10/16 08:59:47;;;;;;;10.55;5.70;;;;;;;10.90;78.16;101300.09;5006007;28;20168;-80
2021/10/16 09:02:13;;;;;;;13.55;6.35;;;;;;;11.18;77.16;101301.06;5002934;28;20093;-81
2021/10/16 09:04:38;;;;;;;11.45;6.10;;;;;;;11.12;78.08;101306.34;5004605;28;20038;-81
2021/10/16 09:07:24;;;;;;;14.52;5.93;;;;;;;11.28;76.03;101316.09;5002693;28;20041;-79
2021/10/16 09:09:50;;;;;;;17.58;6.35;;;;;;;11.21;76.19;101311.66;5005014;28;20088;-80
2021/10/16 09:12:16;;;;;;;9.35;5.10;;;;;;;11.06;77.72;101316.91;5002362;28;20041;-80
2021/10/16 09:14:49;;;;;;;16.13;6.00;;;;;;;11.10;77.19;101313.38;5004036;28;20396;-80
2021/10/16 09:17:16;;;;;;;14.43;5.50;;;;;;;11.24;78.54;101306.41;5003018;28;20034;-80
2021/10/16 09:19:42;;;;;;;14.25;5.85;;;;;;;11.49;76.92;101307.34;5007382;28;20057;-80
2021/10/16 09:22:28;;;;;;;14.02;6.82;;;;;;;11.53;75.81;101308.25;5017795;28;20042;-81
2021/10/16 09:24:53;;;;;;;10.95;5.80;;;;;;;11.46;77.06;101309.09;5001651;28;20106;-80
2021/10/16 09:27:22;;;;;;;15.88;6.10;;;;;;;11.61;76.79;101310.03;5018634;28;20070;-81
2021/10/16 09:30:06;;;;;;;12.70;5.65;;;;;;;11.83;76.11;101318.00;5001594;28;20124;-80
2021/10/16 09:32:31;;;;;;;15.02;5.97;;;;;;;11.88;73.71;101308.31;5001030;28;20092;-80
2021/10/16 09:35:02;;;;;;;14.88;6.43;;;;;;;11.88;73.23;101321.56;5006554;28;20419;-81
2021/10/16 09:37:28;;;;;;;14.98;5.90;;;;;;;12.01;73.01;101312.75;5004500;28;20049;-80
2021/10/16 09:39:55;;;;;;;16.73;6.90;;;;;;;11.96;74.58;101324.22;5002569;28;20037;-79
2021/10/16 09:42:30;;;;;;;12.85;6.55;;;;;;;11.79;72.78;101317.13;5000833;28;20042;-81
2021/10/16 09:44:57;;;;;;;13.82;6.80;;;;;;;11.97;74.07;101318.94;5002557;28;20042;-80
2021/10/16 09:47:22;;;;;;;12.75;6.43;;;;;;;12.05;73.88;101318.91;5018419;28;20053;-80
2021/10/16 09:49:50;;;;;;;18.00;7.13;;;;;;;12.06;71.69;101320.69;5004872;28;20037;-82
2021/10/16 09:52:18;;;;;;;11.90;6.97;;;;;;;11.80;73.46;101328.56;5018450;28;20117;-81
2021/10/16 09:54:45;;;;;;;14.45;6.05;;;;;;;11.65;73.29;101328.53;5019598;28;20038;-76
2021/10/16 09:57:13;;;;;;;12.82;6.45;;;;;;;11.77;73.78;101329.44;4982686;28;20034;-80
2021/10/16 09:59:41;;;;;;;15.07;7.25;;;;;;;11.68;74.52;101334.69;5017674;28;20106;-82
2021/10/16 10:02:08;;;;;;;15.45;7.18;;;;;;;11.74;74.22;101329.44;5017678;28;20088;-82
2021/10/16 10:04:48;;;;;;;14.07;6.65;;;;;;;11.81;74.41;101335.59;5005922;28;20507;-82
2021/10/16 10:07:18;;;;;;;11.45;6.07;;;;;;;11.96;74.07;101333.03;5004836;28;20042;-79
2021/10/16 10:09:45;;;;;;;17.80;7.25;;;;;;;11.96;73.75;101334.78;5004570;28;20589;-80
2021/10/16 10:12:14;;;;;;;15.45;6.70;;;;;;;11.81;74.25;101328.56;5004733;28;20086;-79
2021/10/16 10:14:45;;;;;;;11.30;5.78;;;;;;;11.88;74.50;101332.13;5007515;28;20049;-79
2021/10/16 10:17:12;;;;;;;11.75;6.18;;;;;;;12.03;74.81;101331.28;5018036;28;20052;-79
2021/10/16 10:19:52;;;;;;;15.98;7.05;;;;;;;12.02;74.54;101329.50;5008762;28;20032;-79
2021/10/16 10:22:19;;;;;;;17.80;6.80;;;;;;;12.01;74.45;101325.09;5009706;28;20034;-79
2021/10/16 10:24:47;;;;;;;16.92;7.15;;;;;;;12.02;74.25;101334.78;5008229;28;20038;-79
2021/10/16 10:27:14;;;;;;;11.98;6.65;;;;;;;12.08;74.89;101329.53;5023478;28;20053;-79
2021/10/16 10:29:50;;;;;;;13.85;6.88;;;;;;;12.09;74.44;101319.81;5007006;28;20439;-79
2021/10/16 10:32:21;;;;;;;14.75;6.35;;;;;;;12.26;74.14;101324.22;5009953;28;20045;-79
2021/10/16 10:35:14;;;;;;;11.07;5.50;;;;;;;12.52;72.75;101317.13;5027737;28;20048;-79
2021/10/16 10:37:44;;;;;;;19.08;6.13;;;;;;;12.63;70.59;101315.34;5023235;28;20133;-79
2021/10/16 10:40:16;;;;;;;12.18;4.13;;;;;;;12.84;71.30;101311.78;5009631;28;20113;-79
2021/10/16 10:42:43;;;;;;;11.60;4.70;;;;;;;13.01;70.33;101315.22;5008438;28;20750;-79
2021/10/16 10:45:25;;;;;;;12.90;4.68;;;;;;;12.80;68.68;101310.88;5025497;28;20045;-79
2021/10/16 10:47:59;;;;;;;14.27;4.65;;;;;;;12.65;70.00;101308.28;5026524;28;20516;-79
2021/10/16 10:50:49;;;;;;;11.32;5.25;;;;;;;12.64;69.40;101312.69;5016013;28;20038;-79
2021/10/16 10:53:28;;;;;;;8.93;4.20;;;;;;;12.58;69.28;101312.72;5013245;28;20046;-79
2021/10/16 10:56:01;;;;;;;15.25;5.88;;;;;;;12.68;69.59;101302.97;5011667;28;20057;-79
2021/10/16 10:58:59;;;;;;;11.20;5.90;;;;;;;12.77;68.91;101302.06;5009232;28;20034;-79
2021/10/16 11:01:50;;;;;;;11.30;5.78;;;;;;;12.96;68.52;101300.25;5009671;28;20424;-79
2021/10/16 11:04:44;;;;;;;16.48;6.25;;;;;;;12.96;68.69;101297.59;5012973;28;20037;-79
2021/10/16 11:07:13;;;;;;;12.02;5.40;;;;;;;13.03;69.10;101297.56;5005678;28;20390;-79
2021/10/16 11:09:40;;;;;;;13.93;5.78;;;;;;;13.25;68.80;101297.47;5023763;28;20033;-79
2021/10/16 11:12:07;;;;;;;12.55;5.13;;;;;;;13.32;67.79;101289.50;5004643;28;20054;-80
2021/10/16 11:14:38;;;;;;;16.00;4.93;;;;;;;13.50;67.05;101290.31;5005138;28;20049;-78
2021/10/16 11:17:09;;;;;;;9.57;5.10;;;;;;;13.56;66.43;101288.47;5010489;28;20041;-78
2021/10/16 11:19:48;;;;;;;12.23;4.00;;;;;;;13.37;65.52;101289.47;5027695;28;20046;-78
2021/10/16 11:22:13;;;;;;;11.35;4.25;;;;;;;13.38;66.56;101285.94;5008946;28;20476;-78
2021/10/16 11:24:39;;;;;;;13.00;4.80;;;;;;;13.37;65.89;101285.06;5008387;28;20023;-78
2021/10/16 11:27:04;;;;;;;12.00;4.90;;;;;;;13.43;66.74;101283.25;5008280;28;20113;-78